Terminal Aerodrome Forecast
Issued by NWS

Current Version | Previous Version | Text Only | Print | Product List | Glossary On
Versions: 1 2 3 4 5 6 7 8 9 10 11 12 13 14 15 16 17 18 19 20 21
000
FTUS45 KLKN 281931 AAB
TAFELY
TAF AMD
KELY 281931Z 2820/2918 36016G26KT P6SM VCSH BKN015 OVC030
     FM282100 36015G26KT P6SM VCSH SCT015 BKN030 OVC060
     FM290100 34008KT P6SM VCSH SCT025 BKN040
     FM290800 17006KT P6SM SCT045 BKN060=

USA.gov is the U.S. government's official web portal to all federal, state and local government web resources and services.